Terminal Aerodrome Forecast
Issued by NWS

Home | Current Version | Previous Version | Text Only | Print | Product List | Glossary On
Versions: 1 2 3 4 5 6 7 8 9 10 11 12 13 14 15 16 17 18 19 20 21 22 23 24
000
FTUS41 KALY 180528
TAFPSF
TAF
KPSF 180528Z 1806/1906 VRB03KT P6SM VCSH OVC060
     FM180800 15006KT 6SM -SHRA BR BKN008 OVC012 WS020/19035KT
     FM181800 17008KT P6SM VCSH OVC020 PROB30 1820/1902 VRB15G30KT
      4SM TSRA BR OVC015CB
     FM190200 19006KT 4SM BR VCSH BKN008=

USA.gov is the U.S. government's official web portal to all federal, state and local government web resources and services.